Time;durP1;ratioP1;P1;durP2;ratioP2;P2;SDS_P1;SDS_P2;PMS_P1;PMS_P2;Temp;Humidity;BMP_temperature;BMP_pressure;BME280_temperature;BME280_humidity;BME280_pressure;Samples;Min_cycle;Max_cycle;Signal;HPM_P1;HPM_P2
2021/03/15 00:02:04;;;;;;;8.70;8.00;;;1.50;81.60;;;;;;5218276;28;20079;-68
2021/03/15 00:04:36;;;;;;;8.63;7.93;;;1.60;81.20;;;;;;5219362;28;20501;-68
2021/03/15 00:07:07;;;;;;;8.80;8.00;;;1.60;80.80;;;;;;5217693;28;20069;-68
2021/03/15 00:09:39;;;;;;;8.50;7.80;;;1.70;81.10;;;;;;5219491;28;20474;-69
2021/03/15 00:12:10;;;;;;;8.93;8.13;;;1.60;81.50;;;;;;5218725;28;20061;-68
2021/03/15 00:14:42;;;;;;;8.98;8.27;;;1.60;81.30;;;;;;5220588;28;20068;-68
2021/03/15 00:17:13;;;;;;;9.15;8.35;;;1.70;81.30;;;;;;5218230;28;20052;-68
2021/03/15 00:19:45;;;;;;;8.80;8.10;;;1.80;81.00;;;;;;5217563;28;20041;-68
2021/03/15 00:22:16;;;;;;;9.13;8.40;;;1.70;81.30;;;;;;5217820;28;20417;-68
2021/03/15 00:24:47;;;;;;;9.57;8.77;;;1.70;81.30;;;;;;5217263;28;20122;-69
2021/03/15 00:27:19;;;;;;;8.80;8.00;;;1.70;81.30;;;;;;5219119;28;20136;-69
2021/03/15 00:29:51;;;;;;;9.30;8.50;;;1.70;81.50;;;;;;5218898;28;20033;-67
2021/03/15 00:32:23;;;;;;;8.57;7.88;;;1.80;80.90;;;;;;5210085;28;20053;-69
2021/03/15 00:34:54;;;;;;;9.23;8.43;;;1.80;80.60;;;;;;5213428;28;20579;-68
2021/03/15 00:37:27;;;;;;;9.02;8.32;;;1.90;80.80;;;;;;5209679;28;20140;-69
2021/03/15 00:39:59;;;;;;;9.30;8.50;;;2.00;80.20;;;;;;5215242;28;20510;-69
2021/03/15 00:42:30;;;;;;;9.18;8.45;;;2.00;80.20;;;;;;5211844;28;20056;-69
2021/03/15 00:45:05;;;;;;;9.15;8.35;;;2.10;79.70;;;;;;5215677;28;20033;-69
2021/03/15 00:47:37;;;;;;;10.00;9.20;;;2.10;79.70;;;;;;5218294;28;20410;-69
2021/03/15 00:50:23;;;;;;;9.50;8.70;;;2.10;80.20;;;;;;5213319;28;20037;-69
2021/03/15 00:52:55;;;;;;;9.70;8.90;;;2.00;80.60;;;;;;5217454;28;20041;-69
2021/03/15 00:55:26;;;;;;;9.05;8.35;;;2.00;81.40;;;;;;5210458;28;20040;-68
2021/03/15 00:57:58;;;;;;;9.27;8.48;;;2.00;81.00;;;;;;5216974;28;20135;-69
2021/03/15 01:00:35;;;;;;;9.18;8.38;;;2.00;80.80;;;;;;5211276;28;20798;-68
2021/03/15 01:03:26;;;;;;;9.35;8.55;;;2.00;80.40;;;;;;5211608;28;20825;-68
2021/03/15 01:06:03;;;;;;;9.50;8.70;;;2.10;80.80;;;;;;5215752;28;20048;-68
2021/03/15 01:09:08;;;;;;;10.00;9.13;;;2.10;80.40;;;;;;5206998;28;20053;-68
2021/03/15 01:11:48;;;;;;;9.65;8.85;;;2.10;81.20;;;;;;5215338;28;20774;-68
2021/03/15 01:14:21;;;;;;;9.63;8.82;;;2.00;81.00;;;;;;5216578;28;20565;-68
2021/03/15 01:17:13;;;;;;;10.10;9.30;;;2.10;80.90;;;;;;5210544;28;20167;-68
2021/03/15 01:19:49;;;;;;;9.90;9.10;;;2.10;80.80;;;;;;5214170;28;20056;-69
2021/03/15 01:22:21;;;;;;;10.15;9.25;;;2.10;81.10;;;;;;5210854;28;22236;-67
2021/03/15 01:24:52;;;;;;;10.38;9.48;;;2.00;81.70;;;;;;5214107;28;20037;-66
2021/03/15 01:27:23;;;;;;;10.38;9.48;;;1.90;82.00;;;;;;5210355;28;20073;-68
2021/03/15 01:29:55;;;;;;;10.15;9.25;;;1.80;82.60;;;;;;5214310;28;20072;-68
2021/03/15 01:32:27;;;;;;;10.35;9.48;;;1.70;82.80;;;;;;5213137;28;20041;-68
2021/03/15 01:34:58;;;;;;;10.02;9.18;;;1.70;82.70;;;;;;5213686;28;20690;-68
2021/03/15 01:37:30;;;;;;;10.07;9.18;;;1.70;82.50;;;;;;5210658;28;20128;-68
2021/03/15 01:40:03;;;;;;;9.98;9.07;;;1.70;82.70;;;;;;5218288;28;20578;-67
2021/03/15 01:42:34;;;;;;;9.40;8.60;;;1.70;82.50;;;;;;5211657;28;20106;-68
2021/03/15 01:45:06;;;;;;;11.10;10.20;;;1.70;82.10;;;;;;5214788;28;20072;-68
2021/03/15 01:47:43;;;;;;;10.15;9.27;;;1.60;82.40;;;;;;5214158;28;20099;-65
2021/03/15 01:50:17;;;;;;;10.50;9.65;;;1.60;82.00;;;;;;5215619;28;20040;-67
2021/03/15 01:52:51;;;;;;;10.23;9.38;;;1.50;82.80;;;;;;5216058;28;20131;-66
2021/03/15 01:55:27;;;;;;;9.77;8.88;;;1.50;83.40;;;;;;5216774;28;20136;-67
2021/03/15 01:57:58;;;;;;;9.52;8.73;;;1.50;82.60;;;;;;5217907;28;20481;-67
2021/03/15 02:00:30;;;;;;;10.00;9.10;;;1.50;82.10;;;;;;5215497;28;20478;-67
2021/03/15 02:03:04;;;;;;;9.63;8.77;;;1.50;82.10;;;;;;5216084;28;20045;-68
2021/03/15 02:05:40;;;;;;;9.48;8.68;;;1.60;81.80;;;;;;5217507;28;20107;-67
2021/03/15 02:08:12;;;;;;;9.23;8.43;;;1.60;81.60;;;;;;5213894;28;20063;-67
2021/03/15 02:10:43;;;;;;;9.60;8.80;;;1.60;81.40;;;;;;5217356;28;20041;-67
2021/03/15 02:13:27;;;;;;;9.93;8.85;;;1.60;81.50;;;;;;5213697;28;20044;-66
2021/03/15 02:16:18;;;;;;;9.48;8.68;;;1.70;81.50;;;;;;5216520;28;20068;-67
2021/03/15 02:19:11;;;;;;;9.30;8.52;;;1.70;81.50;;;;;;5214623;28;20481;-68
2021/03/15 02:21:55;;;;;;;9.93;9.00;;;1.70;81.20;;;;;;5213624;28;20828;-68
2021/03/15 02:24:50;;;;;;;9.20;8.50;;;1.70;81.10;;;;;;5214724;28;20123;-66
2021/03/15 02:27:59;;;;;;;9.40;8.60;;;1.70;80.90;;;;;;5215222;28;20099;-67
2021/03/15 02:30:42;;;;;;;9.43;8.50;;;1.70;81.00;;;;;;5212214;28;20127;-68
2021/03/15 02:33:54;;;;;;;9.30;8.40;;;1.70;80.90;;;;;;5214717;28;20068;-67
2021/03/15 02:36:31;;;;;;;9.20;8.43;;;1.70;80.80;;;;;;5209904;28;20128;-67
2021/03/15 02:39:05;;;;;;;9.00;8.20;;;1.70;80.70;;;;;;5207208;28;20049;-67
2021/03/15 02:41:40;;;;;;;9.68;8.88;;;1.80;80.10;;;;;;5210317;28;20107;-67
2021/03/15 02:44:13;;;;;;;9.70;8.85;;;1.80;80.20;;;;;;5214366;28;20614;-68
2021/03/15 02:46:46;;;;;;;9.10;8.40;;;1.80;80.40;;;;;;5211189;28;20042;-67
2021/03/15 02:49:19;;;;;;;9.88;8.98;;;1.70;80.30;;;;;;5210070;28;20085;-67
2021/03/15 02:51:52;;;;;;;9.48;8.52;;;1.70;81.10;;;;;;5180674;28;20783;-67
2021/03/15 02:54:24;;;;;;;9.68;8.77;;;1.70;80.90;;;;;;5212898;28;20445;-66
2021/03/15 02:56:58;;;;;;;9.60;8.60;;;1.70;80.10;;;;;;5201812;28;20068;-67
2021/03/15 02:59:32;;;;;;;9.63;8.82;;;1.70;80.20;;;;;;5214074;28;20041;-67
2021/03/15 03:02:04;;;;;;;9.25;8.45;;;1.70;80.00;;;;;;5209757;28;20856;-67
2021/03/15 03:04:36;;;;;;;9.65;8.80;;;1.70;79.80;;;;;;5213540;28;20045;-68
2021/03/15 03:07:08;;;;;;;9.68;8.88;;;1.70;79.40;;;;;;5213714;28;20450;-66
2021/03/15 03:09:41;;;;;;;9.30;8.50;;;1.70;79.90;;;;;;5212538;28;20126;-67
2021/03/15 03:12:13;;;;;;;9.65;8.85;;;1.60;80.70;;;;;;5209828;28;20497;-67
2021/03/15 03:14:46;;;;;;;9.25;8.48;;;1.60;80.30;;;;;;5210063;28;20115;-67
2021/03/15 03:17:19;;;;;;;9.30;8.40;;;1.70;80.00;;;;;;5212545;28;20438;-67
2021/03/15 03:19:52;;;;;;;9.13;8.32;;;1.70;79.60;;;;;;5210880;28;20049;-67
2021/03/15 03:22:24;;;;;;;8.98;8.18;;;1.70;79.50;;;;;;5214117;28;20475;-67
2021/03/15 03:24:56;;;;;;;9.25;8.45;;;1.80;79.40;;;;;;5216405;28;20072;-67
2021/03/15 03:27:28;;;;;;;9.05;8.25;;;1.70;79.90;;;;;;5215251;28;20048;-67
2021/03/15 03:30:00;;;;;;;9.35;8.45;;;1.70;80.10;;;;;;5215317;28;20497;-67
2021/03/15 03:32:36;;;;;;;10.18;9.18;;;1.70;80.10;;;;;;5212514;28;20044;-69
2021/03/15 03:35:08;;;;;;;8.95;8.25;;;1.70;81.00;;;;;;5213951;28;20114;-67
2021/03/15 03:37:40;;;;;;;9.10;8.30;;;1.70;80.00;;;;;;5214871;28;20052;-68
2021/03/15 03:40:12;;;;;;;9.73;8.88;;;1.70;79.80;;;;;;5214548;28;20475;-68
2021/03/15 03:42:45;;;;;;;9.63;8.82;;;1.70;80.10;;;;;;5214153;28;20069;-67
2021/03/15 03:45:17;;;;;;;8.80;8.00;;;1.70;80.20;;;;;;5214421;28;20036;-67
2021/03/15 03:47:49;;;;;;;9.02;8.25;;;1.70;80.00;;;;;;5214386;28;20045;-69
2021/03/15 03:50:23;;;;;;;9.48;8.70;;;1.70;79.90;;;;;;5214956;28;20166;-67
2021/03/15 03:53:02;;;;;;;8.75;8.05;;;1.70;79.90;;;;;;5214781;28;20136;-68
2021/03/15 03:55:53;;;;;;;9.05;8.25;;;1.70;79.50;;;;;;5215355;28;20049;-67
2021/03/15 03:58:26;;;;;;;9.20;8.40;;;1.70;79.00;;;;;;5215472;28;20577;-67
2021/03/15 04:00:59;;;;;;;9.43;8.73;;;1.70;79.30;;;;;;5214980;28;20132;-68
2021/03/15 04:03:31;;;;;;;9.80;9.00;;;1.70;79.70;;;;;;5215884;28;20072;-68
2021/03/15 04:06:06;;;;;;;9.70;8.90;;;1.70;79.50;;;;;;5213648;28;20136;-68
2021/03/15 04:09:03;;;;;;;9.80;8.90;;;1.70;79.10;;;;;;5212368;28;20568;-68
2021/03/15 04:11:35;;;;;;;9.60;8.80;;;1.70;78.90;;;;;;5214448;28;20049;-69
2021/03/15 04:14:09;;;;;;;9.85;9.05;;;1.60;79.40;;;;;;5215254;28;20040;-67
2021/03/15 04:16:43;;;;;;;9.63;8.70;;;1.60;79.60;;;;;;5214141;28;20533;-68
2021/03/15 04:19:22;;;;;;;9.80;9.00;;;1.60;79.90;;;;;;5215091;28;20033;-68
2021/03/15 04:21:58;;;;;;;9.88;9.07;;;1.60;79.60;;;;;;5212902;28;20061;-67
2021/03/15 04:24:31;;;;;;;9.73;8.93;;;1.70;80.00;;;;;;5213848;28;20127;-68
2021/03/15 04:27:04;;;;;;;9.82;9.02;;;1.60;80.60;;;;;;5214633;28;20083;-69
2021/03/15 04:29:38;;;;;;;9.80;9.00;;;1.60;80.10;;;;;;5215807;28;20064;-67
2021/03/15 04:32:12;;;;;;;10.20;9.30;;;1.60;79.80;;;;;;5212282;28;20052;-68
2021/03/15 04:34:44;;;;;;;10.30;9.43;;;1.60;79.60;;;;;;5215277;28;20092;-68
2021/03/15 04:37:16;;;;;;;10.20;9.30;;;1.50;80.00;;;;;;5213846;28;20040;-67
2021/03/15 04:39:48;;;;;;;9.77;8.98;;;1.50;80.70;;;;;;5214141;28;20049;-68
2021/03/15 04:42:21;;;;;;;10.23;9.25;;;1.40;80.60;;;;;;5207121;28;20172;-68
2021/03/15 04:44:53;;;;;;;9.98;9.07;;;1.40;81.20;;;;;;5219816;28;20529;-68
2021/03/15 04:47:25;;;;;;;10.00;9.20;;;1.40;81.00;;;;;;5211973;28;20104;-67
2021/03/15 04:49:57;;;;;;;10.20;9.30;;;1.40;80.70;;;;;;5217807;28;20118;-67
2021/03/15 04:52:29;;;;;;;9.88;9.07;;;1.40;81.10;;;;;;5210871;28;20053;-68
2021/03/15 04:55:01;;;;;;;10.32;9.32;;;1.40;82.50;;;;;;5214037;28;20137;-68
2021/03/15 04:57:34;;;;;;;9.90;9.07;;;1.30;81.70;;;;;;5211885;28;20072;-67
2021/03/15 05:00:09;;;;;;;9.75;8.95;;;1.40;81.70;;;;;;5218357;28;20053;-68
2021/03/15 05:02:44;;;;;;;10.00;9.20;;;1.40;81.40;;;;;;5218285;28;20123;-68
2021/03/15 05:05:16;;;;;;;10.18;9.20;;;1.50;80.90;;;;;;5214031;28;20099;-68
2021/03/15 05:07:51;;;;;;;9.32;8.55;;;1.60;80.50;;;;;;5212556;28;20049;-69
2021/03/15 05:10:23;;;;;;;9.68;8.85;;;1.50;80.50;;;;;;5210864;28;20041;-67
2021/03/15 05:12:57;;;;;;;13.32;11.93;;;1.50;80.50;;;;;;5214890;28;20124;-68
2021/03/15 05:15:28;;;;;;;11.30;10.20;;;1.40;80.80;;;;;;5213571;28;20121;-68
2021/03/15 05:18:00;;;;;;;10.85;9.80;;;1.40;80.30;;;;;;5217053;28;20103;-68
2021/03/15 05:20:35;;;;;;;10.90;9.80;;;1.40;80.30;;;;;;5212906;28;20091;-68
2021/03/15 05:23:08;;;;;;;11.48;10.25;;;1.30;81.00;;;;;;5211374;28;20163;-69
2021/03/15 05:25:44;;;;;;;11.25;10.25;;;1.30;80.90;;;;;;5212436;28;20979;-68
2021/03/15 05:28:17;;;;;;;10.10;9.30;;;1.40;80.60;;;;;;5217099;28;20079;-69
2021/03/15 05:30:50;;;;;;;9.90;9.00;;;1.40;80.60;;;;;;5213725;28;20515;-68
2021/03/15 05:33:22;;;;;;;9.50;8.70;;;1.40;81.20;;;;;;5215968;28;20048;-68
2021/03/15 05:35:55;;;;;;;9.07;8.27;;;1.50;81.00;;;;;;5211696;28;20041;-68
2021/03/15 05:38:26;;;;;;;12.05;9.93;;;1.50;81.00;;;;;;5216671;28;20053;-68
2021/03/15 05:40:59;;;;;;;10.20;9.30;;;1.50;82.90;;;;;;5209696;28;20507;-68
2021/03/15 05:43:49;;;;;;;10.05;9.05;;;1.60;82.30;;;;;;5215325;28;20036;-68
2021/03/15 05:46:33;;;;;;;9.60;8.80;;;1.50;81.50;;;;;;5211417;28;20413;-68
2021/03/15 05:49:29;;;;;;;9.80;8.88;;;1.50;81.30;;;;;;5208343;28;20043;-67
2021/03/15 05:52:08;;;;;;;10.23;9.23;;;1.50;81.70;;;;;;5214360;28;20060;-68
2021/03/15 05:55:20;;;;;;;9.90;9.03;;;1.50;82.50;;;;;;5209879;28;20069;-68
2021/03/15 05:58:40;;;;;;;9.02;8.32;;;1.50;81.90;;;;;;5206898;28;20369;-67
2021/03/15 06:01:23;;;;;;;9.20;8.30;;;1.60;81.90;;;;;;5210493;28;20044;-68
2021/03/15 06:04:12;;;;;;;9.63;8.73;;;1.60;81.90;;;;;;5217460;28;20041;-67
2021/03/15 06:06:48;;;;;;;9.55;8.70;;;1.50;82.00;;;;;;5208398;28;20114;-69
2021/03/15 06:09:25;;;;;;;9.85;9.00;;;1.50;82.20;;;;;;5200363;28;20128;-68
2021/03/15 06:12:04;;;;;;;9.88;8.98;;;1.50;82.10;;;;;;5196520;28;20570;-68
2021/03/15 06:14:38;;;;;;;11.35;10.18;;;1.50;82.00;;;;;;5196571;28;20661;-67
2021/03/15 06:17:10;;;;;;;10.95;9.10;;;1.60;81.80;;;;;;5199773;28;20052;-67
2021/03/15 06:19:44;;;;;;;9.65;8.85;;;1.60;82.30;;;;;;5203875;28;20040;-67
2021/03/15 06:22:16;;;;;;;9.63;8.80;;;1.50;82.90;;;;;;5200827;28;20087;-68
2021/03/15 06:24:48;;;;;;;9.43;8.63;;;1.50;82.60;;;;;;5204294;28;20466;-67
2021/03/15 06:27:20;;;;;;;9.43;8.52;;;1.50;82.10;;;;;;5201424;28;20061;-68
2021/03/15 06:29:51;;;;;;;9.55;8.65;;;1.60;81.90;;;;;;5206098;28;20037;-67
2021/03/15 06:32:27;;;;;;;9.23;8.43;;;1.60;82.10;;;;;;5194597;28;20046;-67
2021/03/15 06:35:00;;;;;;;9.07;8.20;;;1.60;81.90;;;;;;5207536;28;20095;-68
2021/03/15 06:37:34;;;;;;;9.00;8.20;;;1.60;81.90;;;;;;5199398;28;20120;-68
2021/03/15 06:40:06;;;;;;;11.23;8.50;;;1.70;81.80;;;;;;5208239;28;20041;-67
2021/03/15 06:42:39;;;;;;;9.25;8.45;;;1.70;81.50;;;;;;5205819;28;20064;-67
2021/03/15 06:45:14;;;;;;;9.77;8.50;;;1.80;81.30;;;;;;5212691;28;20183;-67
2021/03/15 06:47:48;;;;;;;9.43;8.48;;;1.80;80.70;;;;;;5210712;28;20036;-68
2021/03/15 06:50:20;;;;;;;9.50;8.63;;;1.80;80.90;;;;;;5205699;28;20041;-68
2021/03/15 06:52:51;;;;;;;9.02;8.27;;;1.80;80.70;;;;;;5211131;28;20060;-67
2021/03/15 06:55:27;;;;;;;9.40;8.50;;;1.80;80.70;;;;;;5214048;28;20053;-67
2021/03/15 06:57:58;;;;;;;9.10;8.40;;;1.80;80.80;;;;;;5209812;28;20418;-67
2021/03/15 07:00:31;;;;;;;9.25;8.45;;;1.80;80.30;;;;;;5211361;28;20525;-67
2021/03/15 07:03:04;;;;;;;8.80;8.10;;;1.70;80.30;;;;;;5213668;28;20072;-67
2021/03/15 07:05:36;;;;;;;9.50;8.70;;;1.70;81.00;;;;;;5211910;28;20055;-67
2021/03/15 07:08:07;;;;;;;9.55;8.65;;;1.60;80.70;;;;;;5206460;28;20127;-67
2021/03/15 07:10:38;;;;;;;9.80;9.00;;;1.60;80.90;;;;;;5212736;28;20098;-68
2021/03/15 07:13:12;;;;;;;9.43;8.55;;;1.60;81.20;;;;;;5208727;28;20102;-66
2021/03/15 07:15:45;;;;;;;9.77;8.98;;;1.60;81.10;;;;;;5204830;28;20044;-67
2021/03/15 07:18:23;;;;;;;9.25;8.55;;;1.70;81.00;;;;;;5209835;28;20166;-67
2021/03/15 07:21:03;;;;;;;9.85;9.05;;;1.80;80.90;;;;;;5210851;28;20041;-68
2021/03/15 07:23:49;;;;;;;10.30;9.50;;;1.80;80.80;;;;;;5208544;28;20132;-67
2021/03/15 07:26:27;;;;;;;9.65;8.80;;;1.90;80.90;;;;;;5215343;28;20064;-68
2021/03/15 07:28:59;;;;;;;9.15;8.40;;;1.80;80.90;;;;;;5215992;28;20128;-68
2021/03/15 07:31:32;;;;;;;9.38;8.50;;;1.70;81.40;;;;;;5213209;28;20450;-67
2021/03/15 07:34:03;;;;;;;9.50;8.65;;;1.70;81.60;;;;;;5195409;28;20659;-67
2021/03/15 07:36:45;;;;;;;9.88;9.07;;;1.70;81.60;;;;;;5215445;28;20065;-67
2021/03/15 07:39:18;;;;;;;9.75;8.95;;;1.60;81.80;;;;;;5211581;28;20180;-67
2021/03/15 07:41:51;;;;;;;9.55;8.82;;;1.60;81.90;;;;;;5213259;28;20127;-67
2021/03/15 07:44:27;;;;;;;9.50;8.70;;;1.80;81.30;;;;;;5215443;28;20049;-67
2021/03/15 07:47:01;;;;;;;9.52;8.80;;;1.80;81.20;;;;;;5215583;28;20049;-67
2021/03/15 07:49:37;;;;;;;9.90;9.10;;;1.90;81.20;;;;;;5209238;28;20486;-67
2021/03/15 07:52:12;;;;;;;9.85;9.00;;;1.90;80.90;;;;;;5214218;28;20037;-67
2021/03/15 07:54:45;;;;;;;10.00;9.20;;;2.00;80.70;;;;;;5212765;28;20037;-67
2021/03/15 07:57:26;;;;;;;12.80;11.40;;;2.20;81.20;;;;;;5214175;28;20725;-68
2021/03/15 07:59:58;;;;;;;10.35;9.40;;;2.30;79.70;;;;;;5211876;28;20384;-68
2021/03/15 08:02:33;;;;;;;9.85;8.95;;;2.50;79.80;;;;;;5213630;28;20135;-68
2021/03/15 08:05:05;;;;;;;9.02;8.32;;;2.50;79.40;;;;;;5210609;28;20767;-68
2021/03/15 08:07:37;;;;;;;10.85;9.85;;;2.50;78.80;;;;;;5209926;28;20069;-67
2021/03/15 08:10:09;;;;;;;13.45;11.70;;;2.60;78.80;;;;;;5208161;28;20510;-67
2021/03/15 08:12:44;;;;;;;12.07;11.00;;;2.60;79.20;;;;;;5212190;28;20072;-67
2021/03/15 08:15:19;;;;;;;10.25;9.35;;;2.70;78.90;;;;;;5202931;28;20049;-67
2021/03/15 08:17:52;;;;;;;9.48;8.60;;;2.70;78.50;;;;;;5214889;28;20061;-68
2021/03/15 08:20:25;;;;;;;9.60;8.75;;;2.70;78.30;;;;;;5212967;28;20045;-67
2021/03/15 08:22:59;;;;;;;9.45;8.65;;;2.80;78.70;;;;;;5214846;28;20048;-67
2021/03/15 08:25:31;;;;;;;9.15;8.45;;;2.80;78.80;;;;;;5215294;28;20049;-67
2021/03/15 08:28:03;;;;;;;9.48;8.68;;;2.80;78.50;;;;;;5219644;28;20045;-67
2021/03/15 08:30:36;;;;;;;9.07;8.27;;;2.90;78.30;;;;;;5212201;28;20049;-67
2021/03/15 08:33:12;;;;;;;9.15;8.35;;;2.90;78.10;;;;;;5216248;28;20055;-67
2021/03/15 08:35:44;;;;;;;9.27;8.48;;;3.00;77.80;;;;;;5216774;28;20053;-67
2021/03/15 08:38:17;;;;;;;9.23;8.43;;;3.10;77.70;;;;;;5217607;28;20103;-66
2021/03/15 08:40:48;;;;;;;9.18;8.40;;;3.30;78.20;;;;;;5214906;28;20045;-67
2021/03/15 08:43:21;;;;;;;9.32;8.63;;;3.30;77.20;;;;;;5219909;28;20153;-67
2021/03/15 08:45:54;;;;;;;9.07;8.27;;;3.30;77.00;;;;;;5217730;28;20048;-67
2021/03/15 08:48:36;;;;;;;8.90;8.20;;;3.30;76.40;;;;;;5216377;28;20116;-67
2021/03/15 08:51:33;;;;;;;9.77;8.98;;;3.20;77.40;;;;;;5216175;28;20132;-67
2021/03/15 08:54:09;;;;;;;9.80;9.00;;;3.30;77.20;;;;;;5216154;28;20037;-67
2021/03/15 08:56:44;;;;;;;9.55;8.75;;;3.40;76.40;;;;;;5211272;28;20053;-67
2021/03/15 08:59:29;;;;;;;9.10;8.40;;;3.60;77.60;;;;;;5214315;28;20052;-67
2021/03/15 09:02:05;;;;;;;9.32;8.63;;;3.60;76.60;;;;;;5217441;28;20498;-68
2021/03/15 09:04:43;;;;;;;9.68;8.88;;;3.70;75.40;;;;;;5214199;28;20049;-68
2021/03/15 09:07:33;;;;;;;9.95;9.20;;;3.70;75.50;;;;;;5214470;28;20052;-67
2021/03/15 09:10:38;;;;;;;10.25;9.35;;;3.90;76.20;;;;;;5213786;28;20118;-66
2021/03/15 09:13:12;;;;;;;10.80;9.90;;;4.00;75.60;;;;;;5183052;28;20396;-68
2021/03/15 09:15:52;;;;;;;12.68;11.48;;;4.10;75.10;;;;;;5199824;28;20106;-67
2021/03/15 09:18:43;;;;;;;10.65;9.85;;;4.40;75.80;;;;;;5214431;28;20415;-67
2021/03/15 09:21:23;;;;;;;10.30;9.50;;;4.50;75.50;;;;;;5215865;28;20550;-67
2021/03/15 09:23:59;;;;;;;11.18;10.27;;;4.70;74.80;;;;;;5213348;28;20063;-68
2021/03/15 09:26:46;;;;;;;11.63;10.70;;;4.80;73.20;;;;;;5216355;28;20052;-68
2021/03/15 09:29:18;;;;;;;10.45;9.45;;;4.80;74.10;;;;;;5217186;28;20044;-68
2021/03/15 09:32:06;;;;;;;10.57;9.70;;;4.70;72.00;;;;;;5216824;28;20446;-68
2021/03/15 09:34:38;;;;;;;10.93;10.02;;;4.70;71.90;;;;;;5218061;28;20717;-67
2021/03/15 09:37:11;;;;;;;11.40;10.40;;;4.70;72.40;;;;;;5213716;28;20045;-67
2021/03/15 09:39:44;;;;;;;11.15;10.15;;;4.70;72.90;;;;;;5217323;28;20082;-67
2021/03/15 09:42:19;;;;;;;13.77;12.43;;;4.70;72.90;;;;;;5214801;28;20888;-67
2021/03/15 09:44:51;;;;;;;13.70;12.40;;;4.80;73.70;;;;;;5216532;28;20053;-66
2021/03/15 09:47:24;;;;;;;10.90;10.00;;;5.10;73.70;;;;;;5212191;28;20041;-67
2021/03/15 09:49:58;;;;;;;10.82;9.93;;;5.10;71.80;;;;;;5213333;28;20044;-67
2021/03/15 09:52:47;;;;;;;12.45;10.80;;;5.30;71.80;;;;;;5214148;28;20465;-68
2021/03/15 09:55:21;;;;;;;12.00;10.90;;;5.40;72.10;;;;;;5197944;28;20136;-67
2021/03/15 09:58:03;;;;;;;12.18;11.07;;;5.70;72.40;;;;;;5213492;28;20065;-66
2021/03/15 10:00:44;;;;;;;11.75;10.70;;;6.00;70.30;;;;;;5212901;28;20120;-67
2021/03/15 10:03:32;;;;;;;12.27;11.10;;;6.30;71.20;;;;;;5214514;28;20063;-67
2021/03/15 10:06:27;;;;;;;11.70;10.70;;;6.40;67.10;;;;;;5205652;28;20053;-67
2021/03/15 10:09:17;;;;;;;11.38;10.48;;;6.30;68.40;;;;;;5211665;28;20047;-67
2021/03/15 10:12:14;;;;;;;11.60;10.70;;;6.40;69.40;;;;;;5213807;28;20036;-67
2021/03/15 10:15:08;;;;;;;11.00;10.20;;;6.60;68.20;;;;;;5209515;28;20041;-67
2021/03/15 10:17:48;;;;;;;12.13;11.20;;;6.80;69.10;;;;;;5212808;28;20530;-67
2021/03/15 10:20:43;;;;;;;10.75;9.93;;;7.00;64.50;;;;;;5201537;28;20051;-67
2021/03/15 10:23:22;;;;;;;10.82;10.02;;;6.60;62.70;;;;;;5210735;28;20414;-68
2021/03/15 10:25:58;;;;;;;9.90;9.15;;;6.10;65.40;;;;;;5213615;28;20037;-67
2021/03/15 10:28:35;;;;;;;10.00;9.20;;;5.90;66.40;;;;;;5216272;28;20058;-67
2021/03/15 10:31:28;;;;;;;9.90;9.15;;;5.80;67.40;;;;;;5212914;28;20533;-68
2021/03/15 10:34:02;;;;;;;9.70;9.00;;;5.50;67.30;;;;;;5210754;28;20040;-67
2021/03/15 10:36:47;;;;;;;10.10;9.30;;;5.40;68.50;;;;;;5214436;28;20396;-68
2021/03/15 10:39:27;;;;;;;9.60;8.90;;;5.40;69.50;;;;;;5207965;28;20049;-68
2021/03/15 10:42:00;;;;;;;10.05;9.25;;;5.30;69.00;;;;;;5212772;28;20313;-69
2021/03/15 10:44:36;;;;;;;12.75;11.35;;;5.10;70.30;;;;;;5200001;28;20049;-67
2021/03/15 10:47:13;;;;;;;10.10;9.30;;;5.20;70.40;;;;;;5213175;28;20052;-66
2021/03/15 10:49:51;;;;;;;;;;;5.30;70.30;;;;;;5212010;28;20061;-67
2021/03/15 10:52:37;;;;;;;11.90;10.80;;;5.40;70.60;;;;;;5190621;28;20626;-68
2021/03/15 10:55:32;;;;;;;24.10;15.52;;;5.60;70.40;;;;;;5155356;28;20049;-67
2021/03/15 10:58:13;;;;;;;41.10;21.55;;;5.70;69.80;;;;;;5194982;28;20060;-68
2021/03/15 11:01:01;;;;;;;21.33;14.48;;;5.70;69.20;;;;;;5207446;28;20086;-67
2021/03/15 11:03:37;;;;;;;24.83;15.30;;;5.80;68.90;;;;;;5215293;28;20060;-68
2021/03/15 11:06:21;;;;;;;16.92;12.63;;;5.90;69.10;;;;;;5201506;28;20042;-67
2021/03/15 11:09:08;;;;;;;17.17;13.20;;;5.80;68.70;;;;;;5212605;28;20048;-67
2021/03/15 11:11:40;;;;;;;11.85;10.75;;;5.80;69.70;;;;;;5207714;28;20034;-68
2021/03/15 11:14:19;;;;;;;11.48;10.55;;;5.70;69.50;;;;;;5212353;28;20055;-67
2021/03/15 11:17:07;;;;;;;15.05;11.93;;;5.70;69.90;;;;;;5211621;28;20033;-67
2021/03/15 11:19:54;;;;;;;10.57;9.63;;;5.80;69.60;;;;;;5212791;28;20302;-66
2021/03/15 11:22:47;;;;;;;11.48;10.57;;;5.70;69.40;;;;;;5209018;28;20041;-68
2021/03/15 11:25:23;;;;;;;19.27;14.38;;;5.70;69.80;;;;;;5211527;28;20071;-68
2021/03/15 11:28:12;;;;;;;10.95;10.00;;;5.70;69.60;;;;;;5215507;28;20087;-68
2021/03/15 11:30:49;;;;;;;21.33;17.50;;;5.70;69.50;;;;;;5210004;28;20792;-68
2021/03/15 11:33:28;;;;;;;15.27;13.50;;;5.70;69.10;;;;;;5213246;28;20185;-67
2021/03/15 11:36:25;;;;;;;13.13;11.88;;;5.60;69.30;;;;;;5208169;28;20127;-67
2021/03/15 11:39:07;;;;;;;13.85;12.55;;;5.60;69.20;;;;;;5211173;28;20049;-67
2021/03/15 11:42:00;;;;;;;17.05;15.30;;;5.60;69.40;;;;;;5211444;28;20249;-68
2021/03/15 11:44:35;;;;;;;15.10;13.60;;;5.60;69.20;;;;;;5214361;28;20140;-68
2021/03/15 11:47:07;;;;;;;13.50;12.27;;;5.50;70.00;;;;;;5214802;28;20823;-67
2021/03/15 11:49:59;;;;;;;11.88;10.82;;;5.60;69.70;;;;;;5196916;28;20045;-67
2021/03/15 11:52:38;;;;;;;12.23;11.25;;;5.60;69.90;;;;;;5214121;28;20147;-68
2021/03/15 11:55:16;;;;;;;11.70;10.77;;;5.60;70.20;;;;;;5216245;28;20052;-67
2021/03/15 11:57:48;;;;;;;10.95;10.05;;;5.50;69.10;;;;;;5216441;28;20037;-68
2021/03/15 12:00:21;;;;;;;11.00;10.10;;;5.50;69.90;;;;;;5217470;28;20044;-67
2021/03/15 12:03:02;;;;;;;11.52;10.63;;;5.50;70.10;;;;;;5217671;28;20052;-67
2021/03/15 12:05:54;;;;;;;10.77;9.90;;;5.40;70.60;;;;;;5186434;28;20447;-67
2021/03/15 12:08:35;;;;;;;11.20;10.30;;;5.30;70.20;;;;;;5214432;28;20060;-67
2021/03/15 12:11:08;;;;;;;10.90;10.00;;;5.40;70.50;;;;;;5212726;28;20041;-67
2021/03/15 12:13:40;;;;;;;12.32;11.23;;;5.50;71.00;;;;;;5196912;28;20041;-67
2021/03/15 12:16:13;;;;;;;11.95;10.95;;;5.60;70.80;;;;;;5212934;28;20065;-67
2021/03/15 12:18:48;;;;;;;12.05;11.00;;;5.70;71.00;;;;;;5213979;28;20044;-68
2021/03/15 12:21:24;;;;;;;14.30;12.82;;;5.80;70.50;;;;;;5214215;28;20449;-67
2021/03/15 12:24:05;;;;;;;;;;;5.80;69.40;;;;;;5215969;28;20045;-68
2021/03/15 12:26:41;;;;;;;12.05;11.05;;;5.70;69.70;;;;;;5218252;28;19936;-67
2021/03/15 12:29:16;;;;;;;12.32;11.32;;;5.60;69.30;;;;;;5217332;28;20044;-68
2021/03/15 12:31:52;;;;;;;11.30;10.30;;;5.60;70.00;;;;;;5215681;28;20071;-67
2021/03/15 12:34:26;;;;;;;10.75;9.85;;;5.60;70.60;;;;;;5214336;28;20041;-68
2021/03/15 12:37:03;;;;;;;10.80;9.90;;;5.70;70.60;;;;;;5216413;28;20407;-68
2021/03/15 12:39:36;;;;;;;10.30;9.50;;;5.80;69.90;;;;;;5216407;28;20055;-68
2021/03/15 12:42:17;;;;;;;10.98;10.07;;;5.70;70.10;;;;;;5211385;28;20120;-68
2021/03/15 12:44:56;;;;;;;10.50;9.70;;;5.80;70.90;;;;;;5218100;28;20060;-67
2021/03/15 12:47:31;;;;;;;10.68;9.88;;;5.80;70.20;;;;;;5213638;28;20428;-68
2021/03/15 12:50:05;;;;;;;10.80;10.00;;;5.90;70.30;;;;;;5216093;28;20050;-68
2021/03/15 12:52:36;;;;;;;11.85;10.95;;;5.90;70.10;;;;;;5216059;28;20731;-68
2021/03/15 12:55:21;;;;;;;10.85;10.05;;;5.90;69.30;;;;;;5215032;28;20072;-68
2021/03/15 12:57:56;;;;;;;10.50;9.60;;;5.80;69.90;;;;;;5208134;28;20427;-68
2021/03/15 13:00:28;;;;;;;11.50;10.50;;;5.80;69.30;;;;;;5214664;28;20473;-68
2021/03/15 13:03:17;;;;;;;10.88;9.98;;;5.90;70.50;;;;;;5217359;28;20128;-68
2021/03/15 13:05:49;;;;;;;11.50;10.50;;;5.90;70.30;;;;;;5217026;28;20045;-68
2021/03/15 13:08:39;;;;;;;12.50;11.35;;;6.00;70.40;;;;;;5216342;28;20490;-67
2021/03/15 13:11:29;;;;;;;11.30;10.40;;;6.00;69.90;;;;;;5211296;28;20059;-67
2021/03/15 13:14:17;;;;;;;11.48;10.57;;;5.90;69.80;;;;;;5215223;28;20049;-67
2021/03/15 13:17:00;;;;;;;11.00;10.20;;;5.90;70.20;;;;;;5213027;28;20041;-67
2021/03/15 13:19:32;;;;;;;11.55;10.65;;;5.90;70.00;;;;;;5216932;28;20037;-67
2021/03/15 13:22:06;;;;;;;11.63;10.73;;;5.90;70.00;;;;;;5214819;28;20072;-67
2021/03/15 13:24:44;;;;;;;11.93;10.93;;;5.80;69.70;;;;;;5216635;28;20428;-68
2021/03/15 13:27:19;;;;;;;11.82;10.82;;;5.90;69.70;;;;;;5215744;28;20086;-69
2021/03/15 13:30:09;;;;;;;10.87;9.97;;;5.80;69.70;;;;;;5217140;28;20059;-67
2021/03/15 13:32:41;;;;;;;10.82;9.93;;;5.80;70.20;;;;;;5215098;28;20776;-67
2021/03/15 13:35:14;;;;;;;10.50;9.70;;;5.80;71.10;;;;;;5215870;28;20061;-68
2021/03/15 13:37:52;;;;;;;10.88;9.98;;;5.80;69.90;;;;;;5214283;28;20041;-67
2021/03/15 13:40:36;;;;;;;11.05;10.15;;;5.90;69.90;;;;;;5212441;28;20041;-68
2021/03/15 13:43:37;;;;;;;16.77;13.48;;;5.90;70.30;;;;;;5210419;28;20581;-67